createdAt,value
2018-10-17T00:00:09.450Z,32.43
2018-10-17T00:02:38.097Z,198.27
2018-10-17T00:05:07.776Z,172.37
2018-10-17T00:07:36.659Z,56.53
2018-10-17T00:10:07.140Z,46.57
2018-10-17T00:12:36.116Z,49.27
2018-10-17T00:15:05.388Z,40.93
2018-10-17T00:17:35.402Z,42.23
2018-10-17T00:20:05.455Z,36.43
2018-10-17T00:22:34.135Z,33.93
2018-10-17T00:25:03.208Z,30.33
2018-10-17T00:27:31.827Z,29.67
2018-10-17T00:30:00.460Z,31.97
2018-10-17T00:32:29.077Z,31.70
2018-10-17T00:34:57.720Z,30.93
2018-10-17T00:37:26.340Z,36.70
2018-10-17T00:39:54.952Z,32.73
2018-10-17T00:42:27.699Z,32.67
2018-10-17T00:44:57.794Z,33.47
2018-10-17T00:47:26.460Z,34.70
2018-10-17T00:49:55.105Z,34.30
2018-10-17T00:52:29.373Z,48.00
2018-10-17T00:54:58.006Z,33.10
2018-10-17T00:57:26.636Z,35.73
2018-10-17T00:59:55.217Z,66.10
2018-10-17T01:02:24.333Z,729.70
2018-10-17T01:04:52.989Z,366.47
2018-10-17T01:07:21.543Z,111.37
2018-10-17T01:09:50.129Z,37.97
2018-10-17T01:12:18.727Z,34.33
2018-10-17T01:14:47.325Z,35.00
2018-10-17T01:17:16.682Z,33.63
2018-10-17T01:22:31.906Z,31.63
2018-10-17T01:25:00.747Z,34.43
2018-10-17T01:27:40.322Z,29.70
2018-10-17T01:30:18.493Z,29.03
2018-10-17T01:32:54.750Z,27.03
2018-10-17T01:35:23.396Z,271.87
2018-10-17T01:37:52.008Z,146.07
2018-10-17T01:40:20.682Z,152.07
2018-10-17T01:42:49.395Z,51.90
2018-10-17T01:45:17.940Z,25.60
2018-10-17T01:47:46.527Z,29.00
2018-10-17T01:50:16.026Z,33.43
2018-10-17T01:52:44.651Z,32.90
2018-10-17T01:55:13.370Z,29.87
2018-10-17T01:57:41.855Z,30.23
2018-10-17T02:00:10.526Z,24.80
2018-10-17T02:02:39.131Z,29.67
2018-10-17T02:05:07.989Z,31.40
2018-10-17T02:07:36.653Z,32.70
2018-10-17T02:10:05.512Z,36.40
2018-10-17T02:12:34.653Z,33.13
2018-10-17T02:15:03.320Z,33.80
2018-10-17T02:17:31.960Z,37.87
2018-10-17T02:20:01.338Z,40.67
2018-10-17T02:22:29.955Z,43.50
2018-10-17T02:24:58.540Z,130.03
2018-10-17T02:27:27.132Z,129.67
2018-10-17T02:29:56.751Z,611.13
2018-10-17T02:32:25.354Z,613.87
2018-10-17T02:34:59.598Z,102.83
2018-10-17T02:37:29.282Z,180.60
2018-10-17T02:40:02.395Z,40.53
2018-10-17T02:55:46.865Z,35.20
2018-10-17T02:58:15.528Z,31.57
2018-10-17T03:00:44.681Z,36.30
2018-10-17T03:03:13.288Z,33.67
2018-10-17T03:05:41.895Z,38.23
2018-10-17T03:08:10.484Z,40.97
2018-10-17T03:10:39.606Z,35.63
2018-10-17T03:13:08.463Z,45.30
2018-10-17T03:15:52.529Z,43.53
2018-10-17T03:18:21.183Z,44.10
2018-10-17T03:20:49.977Z,39.57
2018-10-17T03:23:18.635Z,40.13
2018-10-17T03:25:49.581Z,42.20
2018-10-17T03:28:19.379Z,37.57
2018-10-17T03:30:55.527Z,37.43
2018-10-17T03:33:27.759Z,39.90
2018-10-17T03:36:06.536Z,44.70
2018-10-17T03:38:35.310Z,42.27
2018-10-17T03:41:06.076Z,33.67
2018-10-17T03:43:34.608Z,34.17
2018-10-17T03:46:05.231Z,34.93
2018-10-17T03:48:33.856Z,31.77
2018-10-17T03:51:02.466Z,33.07
2018-10-17T03:53:31.146Z,30.73
2018-10-17T03:55:59.731Z,31.47
2018-10-17T03:58:28.622Z,28.87
2018-10-17T04:00:57.206Z,31.50
2018-10-17T04:03:25.834Z,27.57
2018-10-17T04:05:54.536Z,32.40
2018-10-17T04:08:23.129Z,30.57
2018-10-17T04:10:51.740Z,33.03
2018-10-17T04:13:20.463Z,33.77
2018-10-17T04:15:49.046Z,32.77
2018-10-17T04:18:17.645Z,32.53
2018-10-17T04:20:46.271Z,33.70
2018-10-17T04:23:14.999Z,33.93
2018-10-17T04:25:43.936Z,30.43
2018-10-17T04:28:13.005Z,35.13
2018-10-17T04:30:41.615Z,38.87
2018-10-17T04:33:10.254Z,39.27
2018-10-17T04:35:38.881Z,42.27
2018-10-17T04:38:07.585Z,46.30
2018-10-17T04:40:36.263Z,50.67
2018-10-17T04:43:05.003Z,145.80
2018-10-17T04:45:33.627Z,43.83
2018-10-17T04:48:05.684Z,33.40
2018-10-17T04:50:34.326Z,37.40
2018-10-17T04:53:02.972Z,33.57
2018-10-17T04:55:32.236Z,42.17
2018-10-17T04:58:00.835Z,38.27
2018-10-17T05:00:29.467Z,39.63
2018-10-17T05:02:58.078Z,40.70
2018-10-17T05:05:26.686Z,41.53
2018-10-17T05:07:55.309Z,39.13
2018-10-17T05:10:23.915Z,37.33
2018-10-17T05:12:52.562Z,41.13
2018-10-17T05:15:21.287Z,44.40
2018-10-17T05:17:50.143Z,40.73
2018-10-17T05:20:18.780Z,44.47
2018-10-17T05:22:47.449Z,45.17
2018-10-17T05:25:16.134Z,46.37
2018-10-17T05:27:44.633Z,43.97
2018-10-17T05:30:13.252Z,37.53
2018-10-17T05:32:41.849Z,35.70
2018-10-17T05:35:10.556Z,37.03
2018-10-17T05:37:39.177Z,33.87
2018-10-17T05:40:07.738Z,37.03
2018-10-17T05:42:36.368Z,37.13
2018-10-17T05:45:06.278Z,33.20
2018-10-17T05:47:34.988Z,33.73
2018-10-17T05:50:03.768Z,33.53
2018-10-17T05:52:32.478Z,29.13
2018-10-17T05:55:01.112Z,29.03
2018-10-17T05:57:29.741Z,25.30
2018-10-17T05:59:58.465Z,28.17
2018-10-17T06:02:30.369Z,31.50
2018-10-17T06:04:59.286Z,33.53
2018-10-17T06:07:27.928Z,32.37
2018-10-17T06:09:56.554Z,32.67
2018-10-17T06:12:25.324Z,25.50
2018-10-17T06:14:54.107Z,26.37
2018-10-17T06:17:23.901Z,22.97
2018-10-17T06:19:52.428Z,24.93
2018-10-17T06:22:21.121Z,24.70
2018-10-17T06:24:49.751Z,25.73
2018-10-17T06:27:18.408Z,25.30
2018-10-17T06:29:46.989Z,26.07
2018-10-17T06:32:21.288Z,23.93
2018-10-17T06:34:49.921Z,21.17
2018-10-17T06:37:18.520Z,28.27
2018-10-17T06:39:47.141Z,25.37
2018-10-17T06:42:15.741Z,24.67
2018-10-17T06:44:44.448Z,28.03
2018-10-17T06:47:13.113Z,25.83
2018-10-17T06:49:41.654Z,25.10
2018-10-17T06:52:10.258Z,24.40
2018-10-17T06:54:38.993Z,21.77
2018-10-17T06:57:07.751Z,22.43
2018-10-17T06:59:36.361Z,24.10
2018-10-17T07:02:05.264Z,22.80
2018-10-17T07:04:33.916Z,23.20
2018-10-17T07:07:02.506Z,24.13
2018-10-17T07:09:31.056Z,20.57
2018-10-17T07:11:59.611Z,24.97
2018-10-17T07:14:28.958Z,22.87
2018-10-17T07:16:58.984Z,22.07
2018-10-17T07:19:27.630Z,24.50
2018-10-17T07:22:01.768Z,19.97
2018-10-17T07:24:30.384Z,20.97
2018-10-17T07:26:58.938Z,24.67
2018-10-17T07:29:39.528Z,28.07
2018-10-17T07:32:08.514Z,48.77
2018-10-17T07:34:37.154Z,47.13
2018-10-17T07:37:06.591Z,81.83
2018-10-17T07:39:35.201Z,82.40
2018-10-17T07:42:03.839Z,84.40
2018-10-17T07:44:32.359Z,64.57
2018-10-17T07:47:00.913Z,74.07
2018-10-17T07:49:29.458Z,68.73
2018-10-17T07:51:57.992Z,55.23
2018-10-17T07:54:26.599Z,64.17
2018-10-17T07:56:55.144Z,111.90
2018-10-17T07:59:23.787Z,81.37
2018-10-17T08:01:52.376Z,106.13
2018-10-17T08:04:20.940Z,92.63
2018-10-17T08:06:49.570Z,76.27
2018-10-17T08:09:18.140Z,46.23
2018-10-17T08:11:46.742Z,50.60
2018-10-17T08:14:15.426Z,36.63
2018-10-17T08:16:44.028Z,32.07
2018-10-17T08:19:12.622Z,33.85
2018-10-17T08:21:41.219Z,24.67
2018-10-17T08:24:09.861Z,17.35
2018-10-17T08:26:38.557Z,14.47
2018-10-17T08:29:07.150Z,13.53
2018-10-17T08:31:35.719Z,16.93
2018-10-17T08:34:04.509Z,27.42
2018-10-17T08:36:33.410Z,16.25
2018-10-17T08:39:01.746Z,10.70
2018-10-17T08:41:30.331Z,13.32
2018-10-17T08:43:59.011Z,11.25
2018-10-17T08:46:27.494Z,13.60
2018-10-17T08:48:56.056Z,12.80
2018-10-17T08:51:24.641Z,12.93
2018-10-17T08:53:53.239Z,11.90
2018-10-17T08:56:21.850Z,14.93
2018-10-17T08:58:50.569Z,12.10
2018-10-17T09:01:19.156Z,9.48
2018-10-17T09:03:47.768Z,11.50
2018-10-17T09:06:16.469Z,11.38
2018-10-17T09:08:44.922Z,12.82
2018-10-17T09:11:13.509Z,10.15
2018-10-17T09:13:42.142Z,8.88
2018-10-17T09:16:10.814Z,9.45
2018-10-17T09:18:39.499Z,9.08
2018-10-17T09:21:08.347Z,11.53
2018-10-17T09:23:36.791Z,11.85
2018-10-17T09:26:05.479Z,11.50
2018-10-17T09:28:34.108Z,12.90
2018-10-17T09:31:02.686Z,11.08
2018-10-17T09:33:31.582Z,8.95
2018-10-17T09:36:00.225Z,9.23
2018-10-17T09:38:28.796Z,11.45
2018-10-17T09:40:57.407Z,8.83
2018-10-17T09:43:26.064Z,10.82
2018-10-17T09:45:54.745Z,9.55
2018-10-17T09:48:23.364Z,11.30
2018-10-17T09:50:51.970Z,9.40
2018-10-17T09:53:20.680Z,11.68
2018-10-17T09:55:49.271Z,9.55
2018-10-17T09:58:18.052Z,12.23
2018-10-17T10:00:52.211Z,13.32
2018-10-17T10:03:21.026Z,10.98
2018-10-17T10:05:49.668Z,10.58
2018-10-17T10:08:18.288Z,10.05
2018-10-17T10:10:46.949Z,12.33
2018-10-17T10:13:15.538Z,10.38
2018-10-17T10:15:44.241Z,10.80
2018-10-17T10:18:12.856Z,10.48
2018-10-17T10:20:41.517Z,11.18
2018-10-17T10:23:10.188Z,11.50
2018-10-17T10:25:38.736Z,11.53
2018-10-17T10:28:07.943Z,9.43
2018-10-17T10:30:36.523Z,9.38
2018-10-17T10:33:05.736Z,10.75
2018-10-17T10:35:34.339Z,11.10
2018-10-17T10:38:02.904Z,10.28
2018-10-17T10:40:31.493Z,10.38
2018-10-17T10:43:01.004Z,10.63
2018-10-17T10:45:29.797Z,10.03
2018-10-17T10:47:58.401Z,9.33
2018-10-17T10:50:26.896Z,11.57
2018-10-17T10:52:55.588Z,13.28
2018-10-17T10:55:24.204Z,12.40
2018-10-17T10:57:52.846Z,13.35
2018-10-17T11:00:21.418Z,11.80
2018-10-17T11:02:50.133Z,10.82
2018-10-17T11:05:18.891Z,10.58
2018-10-17T11:07:47.485Z,9.78
2018-10-17T11:10:16.051Z,11.08
2018-10-17T11:12:44.783Z,11.45
2018-10-17T11:15:13.360Z,11.43
2018-10-17T11:17:42.011Z,9.30
2018-10-17T11:20:10.631Z,13.53
2018-10-17T11:22:39.213Z,11.73
2018-10-17T11:25:08.628Z,11.85
2018-10-17T11:27:37.261Z,11.70
2018-10-17T11:30:09.273Z,10.15
2018-10-17T11:32:38.048Z,10.10
2018-10-17T11:35:08.523Z,11.28
2018-10-17T11:37:37.623Z,10.35
2018-10-17T11:40:06.698Z,11.65
2018-10-17T11:42:35.393Z,9.98
2018-10-17T11:45:04.525Z,11.08
2018-10-17T11:47:33.286Z,10.25
2018-10-17T11:50:02.176Z,11.10
2018-10-17T11:52:30.977Z,10.88
2018-10-17T11:54:59.589Z,13.08
2018-10-17T11:57:28.487Z,12.68
2018-10-17T11:59:57.154Z,12.18
2018-10-17T12:02:31.318Z,11.85
2018-10-17T12:05:00.248Z,9.58
2018-10-17T12:07:28.849Z,10.23
2018-10-17T12:10:03.083Z,9.75
2018-10-17T12:12:31.769Z,9.20
2018-10-17T12:15:00.398Z,10.28
2018-10-17T12:17:29.095Z,10.75
2018-10-17T12:19:57.766Z,10.90
2018-10-17T12:22:26.396Z,10.45
2018-10-17T12:24:54.986Z,10.75
2018-10-17T12:27:23.649Z,10.70
2018-10-17T12:29:52.317Z,9.98
2018-10-17T12:32:20.972Z,12.03
2018-10-17T12:34:49.516Z,10.60
2018-10-17T12:37:18.223Z,9.90
2018-10-17T12:39:52.379Z,11.25
2018-10-17T12:42:21.026Z,9.53
2018-10-17T12:44:49.731Z,10.70
2018-10-17T12:47:18.454Z,13.00
2018-10-17T12:49:47.224Z,8.95
2018-10-17T12:52:16.003Z,8.95
2018-10-17T12:54:44.596Z,10.25
2018-10-17T12:57:13.288Z,11.68
2018-10-17T12:59:42.031Z,17.23
2018-10-17T13:02:10.636Z,14.33
2018-10-17T13:04:39.224Z,11.50
2018-10-17T13:07:08.011Z,31.35
2018-10-17T13:09:36.725Z,44.48
2018-10-17T13:12:05.496Z,24.30
2018-10-17T13:14:34.066Z,21.30
2018-10-17T13:17:02.761Z,17.60
2018-10-17T13:19:31.335Z,17.07
2018-10-17T13:22:00.009Z,14.78
2018-10-17T13:24:28.665Z,10.38
2018-10-17T13:26:57.329Z,9.53
2018-10-17T13:29:26.179Z,11.60
2018-10-17T13:31:54.838Z,8.73
2018-10-17T13:34:23.475Z,7.28
2018-10-17T13:36:52.116Z,7.08
2018-10-17T13:39:20.656Z,5.50
2018-10-17T13:41:49.251Z,6.17
2018-10-17T13:44:17.826Z,5.60
2018-10-17T13:46:46.440Z,4.12
2018-10-17T13:49:15.197Z,5.40
2018-10-17T13:51:43.781Z,6.75
2018-10-17T13:54:12.413Z,5.15
2018-10-17T13:56:41.110Z,5.67
2018-10-17T13:59:09.829Z,7.00
2018-10-17T14:01:38.457Z,6.17
2018-10-17T14:04:07.211Z,6.53
2018-10-17T14:06:35.876Z,5.95
2018-10-17T14:09:07.233Z,8.95
2018-10-17T14:11:36.920Z,7.45
2018-10-17T14:14:06.205Z,8.05
2018-10-17T14:16:34.813Z,8.80
2018-10-17T14:19:03.490Z,9.23
2018-10-17T14:21:32.105Z,8.78
2018-10-17T14:24:01.259Z,9.65
2018-10-17T14:26:29.883Z,7.28
2018-10-17T14:28:58.463Z,7.05
2018-10-17T14:31:27.100Z,8.73
2018-10-17T14:34:03.223Z,8.90
2018-10-17T14:36:45.191Z,8.15
2018-10-17T14:39:13.933Z,7.92
2018-10-17T14:41:42.536Z,6.78
2018-10-17T14:44:11.108Z,8.43
2018-10-17T14:46:39.748Z,8.45
2018-10-17T14:49:08.338Z,8.98
2018-10-17T14:51:36.949Z,6.92
2018-10-17T14:54:05.701Z,7.78
2018-10-17T14:56:34.262Z,8.43
2018-10-17T14:59:02.919Z,7.25
2018-10-17T15:01:31.570Z,8.00
2018-10-17T15:04:00.171Z,7.28
2018-10-17T15:06:28.872Z,7.67
2018-10-17T15:08:57.552Z,11.35
2018-10-17T15:11:31.772Z,10.98
2018-10-17T15:14:05.933Z,9.15
2018-10-17T15:16:34.577Z,7.90
2018-10-17T15:19:03.193Z,8.55
2018-10-17T15:21:31.936Z,8.50
2018-10-17T15:24:00.660Z,8.58
2018-10-17T15:26:29.202Z,10.40
2018-10-17T15:28:57.807Z,8.88
2018-10-17T15:31:26.543Z,7.65
2018-10-17T15:33:55.266Z,8.60
2018-10-17T15:36:23.985Z,8.85
2018-10-17T15:38:52.620Z,9.20
2018-10-17T15:41:26.871Z,8.48
2018-10-17T15:43:55.629Z,8.83
2018-10-17T15:46:24.356Z,11.08
2018-10-17T15:48:53.040Z,11.43
2018-10-17T15:51:21.845Z,15.35
2018-10-17T15:53:50.559Z,15.60
2018-10-17T15:56:20.630Z,14.28
2018-10-17T15:58:49.317Z,16.93
2018-10-17T16:01:18.082Z,18.67
2018-10-17T16:03:46.671Z,12.03
2018-10-17T16:06:15.462Z,10.88
2018-10-17T16:08:44.134Z,11.17
2018-10-17T16:11:12.802Z,14.70
2018-10-17T16:13:41.471Z,9.93
2018-10-17T16:16:10.116Z,33.87
2018-10-17T16:18:38.762Z,166.80
2018-10-17T16:21:07.420Z,255.67
2018-10-17T16:23:36.436Z,182.43
2018-10-17T16:26:05.407Z,139.03
2018-10-17T16:28:34.057Z,76.20
2018-10-17T16:31:03.564Z,32.27
2018-10-17T16:33:32.192Z,23.47
2018-10-17T16:36:01.542Z,18.00
2018-10-17T16:38:30.121Z,13.90
2018-10-17T16:40:58.844Z,14.73
2018-10-17T16:43:27.444Z,16.67
2018-10-17T16:45:56.072Z,14.60
2018-10-17T16:48:24.807Z,15.28
2018-10-17T16:50:53.537Z,12.13
2018-10-17T16:53:22.192Z,13.30
2018-10-17T16:55:50.837Z,13.00
2018-10-17T16:58:19.666Z,13.60
2018-10-17T17:00:48.254Z,13.80
2018-10-17T17:03:16.958Z,13.07
2018-10-17T17:05:45.655Z,12.80
2018-10-17T17:08:14.368Z,12.73
2018-10-17T17:10:43.092Z,12.53
2018-10-17T17:13:11.766Z,10.13
2018-10-17T17:15:40.424Z,10.97
2018-10-17T17:18:09.866Z,11.07
2018-10-17T17:20:38.594Z,11.90
2018-10-17T17:23:12.884Z,13.23
2018-10-17T17:25:41.565Z,10.90
2018-10-17T17:28:10.214Z,13.00
2018-10-17T17:30:39.802Z,10.83
2018-10-17T17:33:13.140Z,16.40
2018-10-17T17:35:41.852Z,13.23
2018-10-17T17:38:10.509Z,11.53
2018-10-17T17:40:39.104Z,10.73
2018-10-17T17:43:07.809Z,11.90
2018-10-17T17:45:36.600Z,11.83
2018-10-17T17:48:10.720Z,11.33
2018-10-17T17:50:39.437Z,11.80
2018-10-17T17:53:08.036Z,11.43
2018-10-17T17:55:36.810Z,12.70
2018-10-17T17:58:05.816Z,12.77
2018-10-17T18:00:34.443Z,12.43
2018-10-17T18:03:03.014Z,11.57
2018-10-17T18:05:32.276Z,9.47
2018-10-17T18:08:00.878Z,10.00
2018-10-17T18:10:29.577Z,12.70
2018-10-17T18:13:03.890Z,9.23
2018-10-17T18:15:32.549Z,9.67
2018-10-17T18:18:01.610Z,10.47
2018-10-17T18:20:30.210Z,10.77
2018-10-17T18:22:59.394Z,9.07
2018-10-17T18:25:28.039Z,9.20
2018-10-17T18:27:58.568Z,10.27
2018-10-17T18:30:27.159Z,11.03
2018-10-17T18:32:55.759Z,10.53
2018-10-17T18:35:25.032Z,10.03
2018-10-17T18:37:53.645Z,11.13
2018-10-17T18:40:22.279Z,10.97
2018-10-17T18:42:50.910Z,9.50
2018-10-17T18:45:19.522Z,11.17
2018-10-17T18:47:48.369Z,9.37
2018-10-17T18:50:17.011Z,9.93
2018-10-17T18:52:51.757Z,9.90
2018-10-17T18:55:26.134Z,10.43
2018-10-17T18:57:55.120Z,9.67
2018-10-17T19:00:23.894Z,10.17
2018-10-17T19:02:53.294Z,11.57
2018-10-17T19:05:21.982Z,10.60
2018-10-17T19:07:50.646Z,10.47
2018-10-17T19:10:19.326Z,10.33
2018-10-17T19:12:53.491Z,8.83
2018-10-17T19:15:23.022Z,10.10
2018-10-17T19:17:51.684Z,12.87
2018-10-17T19:20:26.497Z,10.17
2018-10-17T19:22:56.004Z,13.03
2018-10-17T19:25:24.801Z,13.20
2018-10-17T19:27:53.471Z,12.30
2018-10-17T19:30:22.694Z,10.70
2018-10-17T19:32:51.521Z,11.77
2018-10-17T19:35:20.301Z,10.80
2018-10-17T19:37:49.041Z,10.87
2018-10-17T19:40:24.178Z,14.47
2018-10-17T19:42:52.971Z,10.33
2018-10-17T19:45:22.178Z,11.00
2018-10-17T19:47:51.742Z,11.63
2018-10-17T19:50:20.509Z,12.20
2018-10-17T19:52:49.163Z,12.33
2018-10-17T19:55:17.993Z,10.87
2018-10-17T19:57:47.886Z,10.67
2018-10-17T20:00:17.299Z,11.60
2018-10-17T20:02:45.944Z,11.37
2018-10-17T20:05:15.269Z,9.57
2018-10-17T20:07:43.955Z,11.43
2018-10-17T20:10:12.658Z,10.23
2018-10-17T20:12:41.316Z,10.17
2018-10-17T20:15:10.981Z,11.17
2018-10-17T20:17:39.686Z,10.90
2018-10-17T20:20:09.824Z,12.17
2018-10-17T20:22:39.475Z,11.93
2018-10-17T20:25:10.987Z,10.40
2018-10-17T20:27:40.618Z,10.27
2018-10-17T20:30:10.441Z,10.13
2018-10-17T20:32:39.700Z,9.93
2018-10-17T20:35:09.273Z,9.57
2018-10-17T20:37:43.558Z,11.27
2018-10-17T20:40:14.974Z,11.67
2018-10-17T20:42:44.676Z,11.33
2018-10-17T20:45:13.302Z,11.87
2018-10-17T20:47:41.934Z,14.17
2018-10-17T20:50:10.582Z,10.63
2018-10-17T20:52:44.591Z,12.30
2018-10-17T20:55:13.341Z,10.10
2018-10-17T20:57:41.964Z,11.60
2018-10-17T21:00:10.669Z,11.73
2018-10-17T21:02:39.328Z,10.63
2018-10-17T21:05:08.062Z,11.70
2018-10-17T21:07:36.758Z,10.37
2018-10-17T21:10:06.543Z,10.37
2018-10-17T21:12:40.561Z,13.73
2018-10-17T21:15:10.153Z,13.53
2018-10-17T21:17:44.234Z,9.87
2018-10-17T21:20:13.046Z,12.17
2018-10-17T21:22:41.947Z,11.23
2018-10-17T21:25:11.342Z,11.23
2018-10-17T21:27:39.984Z,10.80
2018-10-17T21:30:10.789Z,11.53
2018-10-17T21:32:42.050Z,12.33
2018-10-17T21:35:11.589Z,13.07
2018-10-17T21:37:40.114Z,11.80
2018-10-17T21:40:08.696Z,12.87
2018-10-17T21:42:37.741Z,12.93
2018-10-17T21:45:07.109Z,11.00
2018-10-17T21:47:36.381Z,11.83
2018-10-17T21:50:05.484Z,11.53
2018-10-17T21:52:34.039Z,14.83
2018-10-17T21:55:02.688Z,11.77
2018-10-17T21:57:32.208Z,11.90
2018-10-17T22:00:00.896Z,11.13
2018-10-17T22:02:29.524Z,12.57
2018-10-17T22:04:58.709Z,16.33
2018-10-17T22:07:27.264Z,11.40
2018-10-17T22:09:56.141Z,12.97
2018-10-17T22:12:24.656Z,12.30
2018-10-17T22:14:53.254Z,13.27
2018-10-17T22:17:28.603Z,12.00
2018-10-17T22:19:57.595Z,12.10
2018-10-17T22:22:26.588Z,11.47
2018-10-17T22:24:55.888Z,12.07
2018-10-17T22:27:24.536Z,12.80
2018-10-17T22:29:54.357Z,12.60
2018-10-17T22:32:22.923Z,13.33
2018-10-17T22:34:51.514Z,14.23
2018-10-17T22:37:20.058Z,12.87
2018-10-17T22:39:48.601Z,12.33
2018-10-17T22:42:17.139Z,13.03
2018-10-17T22:44:45.743Z,13.83
2018-10-17T22:47:14.314Z,12.40
2018-10-17T22:49:42.958Z,11.77
2018-10-17T22:52:11.528Z,11.97
2018-10-17T22:54:40.106Z,14.87
2018-10-17T22:57:11.328Z,13.63
2018-10-17T22:59:39.984Z,12.63
2018-10-17T23:02:08.658Z,14.13
2018-10-17T23:04:37.266Z,13.03
2018-10-17T23:07:13.521Z,12.13
2018-10-17T23:09:51.062Z,12.47
2018-10-17T23:12:24.999Z,12.77
2018-10-17T23:15:01.364Z,12.37
2018-10-17T23:17:33.197Z,12.20
2018-10-17T23:20:06.025Z,16.10
2018-10-17T23:22:35.539Z,13.20
2018-10-17T23:25:06.993Z,13.30
2018-10-17T23:27:40.529Z,14.90
2018-10-17T23:33:08.032Z,14.07
2018-10-17T23:35:48.397Z,13.07
2018-10-17T23:38:19.961Z,13.90
2018-10-17T23:40:56.294Z,13.67
2018-10-17T23:43:35.701Z,13.03
2018-10-17T23:46:21.869Z,13.20
2018-10-17T23:48:59.619Z,15.37
2018-10-17T23:51:47.061Z,13.83
2018-10-17T23:54:26.575Z,13.33
2018-10-17T23:57:02.819Z,14.83
2018-10-17T23:59:44.269Z,16.70
